Shinka Maru — JD3630 — position and weather

sailwx.info

Track history (hours):
 
Tides and Currents Weather Stations Pressure Air Temp Water Temp Dewpoint Dewpoint Depression Visibility Wind Speed Wind Dir Waves Ship Positions

Shinka Maru

Last reported at 2018-Jun-20 12:24 UTC. Time now 2018-Jun-24 01:40 UTC.
Position N 35°03' E 139°44'.

Length 172 m; draft 6.9 m.

Type: Cargo ship. MMSI: 431005364.

Date/timePositionNaut miles runAvg speedWind from/ knotsBaromVisibWave heightAir tempDewpointWater temp
2018-Jun-20 12:24N 35°03' E 139°44'819.7
2018-Jun-20 12:00N 35°10' E 139°46'713.2
2018-Jun-20 11:30N 35°17' E 139°45'714.2
2018-Jun-20 11:00N 35°24' E 139°42'917.0
2018-Jun-20 10:30N 35°29' E 139°50'814.9
2018-Jun-20 10:00N 35°36' E 139°47'2 0.4
2018-Jun-20 05:11N 35°38' E 139°46'0 0.6
2018-Jun-20 04:58N 35°38' E 139°46'612.4
2018-Jun-20 04:30N 35°33' E 139°50'713.9
2018-Jun-20 04:00N 35°27' E 139°49'713.9
2018-Jun-20 03:30N 35°21' E 139°45'611.9
2018-Jun-20 03:00N 35°15' E 139°47'815.5
2018-Jun-20 02:30N 35°07' E 139°45'24316.9
2018-Jun-19 12:05N 33°48' E 135°07'217.7
2018-Jun-19 11:58N 33°49' E 135°05'817.3
2018-Jun-19 11:30N 33°56' E 135°01'918.9
2018-Jun-19 11:00N 34°06' E 134°60'1020.0
2018-Jun-19 10:30N 34°16' E 134°59'1019.0
2018-Jun-19 10:00N 34°24' E 135°03'1019.9
2018-Jun-19 09:30N 34°31' E 135°12'918.0
2018-Jun-19 09:00N 34°36' E 135°21'3 6.3
2018-Jun-19 08:30N 34°37' E 135°25'0 0.0
2018-Jun-19 07:59N 34°37' E 135°25'0 0.0
2018-Jun-19 07:28N 34°37' E 135°25'0 0.0
2018-Jun-19 06:58N 34°37' E 135°25'0 0.0
2018-Jun-19 06:11N 34°37' E 135°25'0 0.0
2018-Jun-19 05:59N 34°37' E 135°25'0 0.0
2018-Jun-19 05:22N 34°37' E 135°25'0 0.0
2018-Jun-19 04:59N 34°37' E 135°25'0 0.0
2018-Jun-19 04:28N 34°37' E 135°25'0 0.0
2018-Jun-19 03:58N 34°37' E 135°25'0 0.0
2018-Jun-19 03:05N 34°37' E 135°25'0 0.0
2018-Jun-19 02:40N 34°37' E 135°25'0 0.0
2018-Jun-19 02:29N 34°37' E 135°25'0 0.0
2018-Jun-19 01:59N 34°37' E 135°25'0 0.0
2018-Jun-19 01:25N 34°37' E 135°25'0 0.0
2018-Jun-19 00:58N 34°37' E 135°25'0 0.0
2018-Jun-19 00:30N 34°37' E 135°25'3 5.2
2018-Jun-19 00:00N 34°36' E 135°22'917.1
2018-Jun-18 23:30N 34°30' E 135°14'816.9
2018-Jun-18 23:01N 34°24' E 135°07'816.7
2018-Jun-18 22:30N 34°18' E 135°00'815.9
2018-Jun-18 22:01N 34°10' E 134°60'917.3
2018-Jun-18 21:30N 34°01' E 135°01'917.3
2018-Jun-18 21:01N 33°53' E 134°60'917.3
2018-Jun-18 20:30N 33°44' E 134°59'815.2
2018-Jun-18 19:58N 33°38' E 135°05'24316.7
2018-Jun-18 05:23N 35°04' E 139°40'718.5
2018-Jun-18 05:01N 35°10' E 139°45'713.7
2018-Jun-18 04:31N 35°17' E 139°45'714.1
2018-Jun-18 04:01N 35°24' E 139°43'917.5
2018-Jun-18 03:31N 35°30' E 139°51'815.7
2018-Jun-18 03:00N 35°37' E 139°46'1 2.9
2018-Jun-18 02:30N 35°38' E 139°46'0 0.0
2018-Jun-18 01:40N 35°38' E 139°46'0 0.2
2018-Jun-18 01:25N 35°38' E 139°46'0 0.1
2018-Jun-18 00:49N 35°38' E 139°46'0 0.1
2018-Jun-18 00:25N 35°38' E 139°46'0 0.1
2018-Jun-17 23:58N 35°38' E 139°46'0 0.0
2018-Jun-17 22:31N 35°38' E 139°46'0 0.0
2018-Jun-17 22:28N 35°38' E 139°46'0 0.1
2018-Jun-17 21:53N 35°38' E 139°46'4 9.6
2018-Jun-17 21:30N 35°35' E 139°48'713.8
2018-Jun-17 21:01N 35°29' E 139°52'815.2
2018-Jun-17 20:30N 35°23' E 139°46'611.4
2018-Jun-17 20:00N 35°17' E 139°45'612.7
2018-Jun-17 19:30N 35°11' E 139°47'  
2018-Jun-13 12:17N 35°02' E 139°44'517.8
2018-Jun-13 12:00N 35°07' E 139°45'815.9
2018-Jun-13 11:30N 35°15' E 139°46'713.4
2018-Jun-13 11:00N 35°21' E 139°42'816.7
2018-Jun-13 10:30N 35°28' E 139°48'713.5
2018-Jun-13 10:00N 35°34' E 139°48'4 7.8
2018-Jun-13 09:29N 35°38' E 139°46'0 0.0
2018-Jun-13 05:38N 35°38' E 139°46'0 0.0
2018-Jun-13 05:29N 35°38' E 139°46'1 2.2
2018-Jun-13 05:00N 35°37' E 139°46'816.6
2018-Jun-13 04:31N 35°31' E 139°52'816.3
2018-Jun-13 04:00N 35°24' E 139°46'612.6
2018-Jun-13 03:30N 35°18' E 139°44'612.4
2018-Jun-13 03:00N 35°12' E 139°47'24517.5
2018-Jun-12 13:02N 33°43' E 135°10'320.2
2018-Jun-12 12:54N 33°45' E 135°08'820.1
2018-Jun-12 12:30N 33°52' E 135°02'1020.1
2018-Jun-12 12:00N 34°02' E 135°00'1020.1
2018-Jun-12 11:30N 34°12' E 134°59'917.5
2018-Jun-12 11:00N 34°21' E 134°60'1019.0
2018-Jun-12 10:30N 34°28' E 135°07'1019.9
2018-Jun-12 10:00N 34°35' E 135°16'815.3
2018-Jun-12 09:30N 34°37' E 135°25'0 0.0
2018-Jun-12 05:36N 34°37' E 135°25'0 0.0
2018-Jun-12 05:18N 34°37' E 135°25'0 0.0
2018-Jun-12 03:57N 34°37' E 135°25'0 0.0
2018-Jun-12 03:29N 34°37' E 135°25'2 4.5
2018-Jun-12 03:00N 34°36' E 135°22'816.6
2018-Jun-12 02:30N 34°31' E 135°15'816.9
2018-Jun-12 02:00N 34°25' E 135°07'816.8
2018-Jun-12 01:31N 34°19' E 135°00'815.6
2018-Jun-12 01:00N 34°11' E 134°59'917.9
2018-Jun-12 00:30N 34°02' E 135°00'1017.6
2018-Jun-11 23:58N 33°53' E 135°02'816.9
2018-Jun-11 23:29N 33°46' E 135°07'24016.3
2018-Jun-11 08:49N 35°05' E 139°41'620.0
2018-Jun-11 08:30N 35°10' E 139°45'714.1
2018-Jun-11 08:00N 35°17' E 139°45'713.7
2018-Jun-11 07:30N 35°23' E 139°42'917.7
2018-Jun-11 07:00N 35°29' E 139°50'815.3
2018-Jun-11 06:30N 35°36' E 139°46'2 1.4
2018-Jun-11 05:17N 35°38' E 139°46'0 0.0
2018-Jun-11 04:59N 35°38' E 139°46'0 0.1
2018-Jun-11 04:28N 35°38' E 139°46'0 0.1
2018-Jun-11 03:57N 35°38' E 139°46'0 0.0
2018-Jun-11 03:29N 35°38' E 139°46'0 0.0
2018-Jun-11 02:52N 35°38' E 139°46'0 0.0
2018-Jun-10 23:45N 35°38' E 139°46'0 0.0
2018-Jun-10 23:26N 35°38' E 139°46'0 0.0
2018-Jun-10 22:51N 35°38' E 139°46'0 0.3
2018-Jun-10 21:38N 35°38' E 139°46'1 9.3
2018-Jun-10 21:31N 35°37' E 139°46'815.1
2018-Jun-10 21:00N 35°31' E 139°52'815.4
2018-Jun-10 20:30N 35°24' E 139°47'612.8
2018-Jun-10 20:00N 35°18' E 139°44'612.3
2018-Jun-10 19:29N 35°12' E 139°47'715.7
2018-Jun-10 19:00N 35°05' E 139°45'2010.9
2018-Jun-10 17:13N 34°58' E 140°08'  
Track history (hours):
 
Tides and Currents Weather Stations Pressure Air Temp Water Temp Dewpoint Dewpoint Depression Visibility Wind Speed Wind Dir Waves Ship Positions

Shinka Maru

Last reported at 2018-Jun-20 12:24 UTC. Time now 2018-Jun-24 01:40 UTC.
Position N 35°03' E 139°44'.

Length 172 m; draft 6.9 m.

Type: Cargo ship. MMSI: 431005364.

Date/timePositionNaut miles runAvg speedWind from/ knotsBaromVisibWave heightAir tempDewpointWater temp
2018-Jun-20 12:24N 35°03' E 139°44'819.7
2018-Jun-20 12:00N 35°10' E 139°46'713.2
2018-Jun-20 11:30N 35°17' E 139°45'714.2
2018-Jun-20 11:00N 35°24' E 139°42'917.0
2018-Jun-20 10:30N 35°29' E 139°50'814.9
2018-Jun-20 10:00N 35°36' E 139°47'2 0.4
2018-Jun-20 05:11N 35°38' E 139°46'0 0.6
2018-Jun-20 04:58N 35°38' E 139°46'612.4
2018-Jun-20 04:30N 35°33' E 139°50'713.9
2018-Jun-20 04:00N 35°27' E 139°49'713.9
2018-Jun-20 03:30N 35°21' E 139°45'611.9
2018-Jun-20 03:00N 35°15' E 139°47'815.5
2018-Jun-20 02:30N 35°07' E 139°45'24316.9
2018-Jun-19 12:05N 33°48' E 135°07'217.7
2018-Jun-19 11:58N 33°49' E 135°05'817.3
2018-Jun-19 11:30N 33°56' E 135°01'918.9
2018-Jun-19 11:00N 34°06' E 134°60'1020.0
2018-Jun-19 10:30N 34°16' E 134°59'1019.0
2018-Jun-19 10:00N 34°24' E 135°03'1019.9
2018-Jun-19 09:30N 34°31' E 135°12'918.0
2018-Jun-19 09:00N 34°36' E 135°21'3 6.3
2018-Jun-19 08:30N 34°37' E 135°25'0 0.0
2018-Jun-19 07:59N 34°37' E 135°25'0 0.0
2018-Jun-19 07:28N 34°37' E 135°25'0 0.0
2018-Jun-19 06:58N 34°37' E 135°25'0 0.0
2018-Jun-19 06:11N 34°37' E 135°25'0 0.0
2018-Jun-19 05:59N 34°37' E 135°25'0 0.0
2018-Jun-19 05:22N 34°37' E 135°25'0 0.0
2018-Jun-19 04:59N 34°37' E 135°25'0 0.0
2018-Jun-19 04:28N 34°37' E 135°25'0 0.0
2018-Jun-19 03:58N 34°37' E 135°25'0 0.0
2018-Jun-19 03:05N 34°37' E 135°25'0 0.0
2018-Jun-19 02:40N 34°37' E 135°25'0 0.0
2018-Jun-19 02:29N 34°37' E 135°25'0 0.0
2018-Jun-19 01:59N 34°37' E 135°25'0 0.0
2018-Jun-19 01:25N 34°37' E 135°25'0 0.0
2018-Jun-19 00:58N 34°37' E 135°25'0 0.0
2018-Jun-19 00:30N 34°37' E 135°25'3 5.2
2018-Jun-19 00:00N 34°36' E 135°22'917.1
2018-Jun-18 23:30N 34°30' E 135°14'816.9
2018-Jun-18 23:01N 34°24' E 135°07'816.7
2018-Jun-18 22:30N 34°18' E 135°00'815.9
2018-Jun-18 22:01N 34°10' E 134°60'917.3
2018-Jun-18 21:30N 34°01' E 135°01'917.3
2018-Jun-18 21:01N 33°53' E 134°60'917.3
2018-Jun-18 20:30N 33°44' E 134°59'815.2
2018-Jun-18 19:58N 33°38' E 135°05'24316.7
2018-Jun-18 05:23N 35°04' E 139°40'718.5
2018-Jun-18 05:01N 35°10' E 139°45'713.7
2018-Jun-18 04:31N 35°17' E 139°45'714.1
2018-Jun-18 04:01N 35°24' E 139°43'917.5
2018-Jun-18 03:31N 35°30' E 139°51'815.7
2018-Jun-18 03:00N 35°37' E 139°46'1 2.9
2018-Jun-18 02:30N 35°38' E 139°46'0 0.0
2018-Jun-18 01:40N 35°38' E 139°46'0 0.2
2018-Jun-18 01:25N 35°38' E 139°46'0 0.1
2018-Jun-18 00:49N 35°38' E 139°46'0 0.1
2018-Jun-18 00:25N 35°38' E 139°46'0 0.1
2018-Jun-17 23:58N 35°38' E 139°46'0 0.0
2018-Jun-17 22:31N 35°38' E 139°46'0 0.0
2018-Jun-17 22:28N 35°38' E 139°46'0 0.1
2018-Jun-17 21:53N 35°38' E 139°46'4 9.6
2018-Jun-17 21:30N 35°35' E 139°48'713.8
2018-Jun-17 21:01N 35°29' E 139°52'815.2
2018-Jun-17 20:30N 35°23' E 139°46'611.4
2018-Jun-17 20:00N 35°17' E 139°45'612.7
2018-Jun-17 19:30N 35°11' E 139°47'  
2018-Jun-13 12:17N 35°02' E 139°44'517.8
2018-Jun-13 12:00N 35°07' E 139°45'815.9
2018-Jun-13 11:30N 35°15' E 139°46'713.4
2018-Jun-13 11:00N 35°21' E 139°42'816.7
2018-Jun-13 10:30N 35°28' E 139°48'713.5
2018-Jun-13 10:00N 35°34' E 139°48'4 7.8
2018-Jun-13 09:29N 35°38' E 139°46'0 0.0
2018-Jun-13 05:38N 35°38' E 139°46'0 0.0
2018-Jun-13 05:29N 35°38' E 139°46'1 2.2
2018-Jun-13 05:00N 35°37' E 139°46'816.6
2018-Jun-13 04:31N 35°31' E 139°52'816.3
2018-Jun-13 04:00N 35°24' E 139°46'612.6
2018-Jun-13 03:30N 35°18' E 139°44'612.4
2018-Jun-13 03:00N 35°12' E 139°47'24517.5
2018-Jun-12 13:02N 33°43' E 135°10'320.2
2018-Jun-12 12:54N 33°45' E 135°08'820.1
2018-Jun-12 12:30N 33°52' E 135°02'1020.1
2018-Jun-12 12:00N 34°02' E 135°00'1020.1
2018-Jun-12 11:30N 34°12' E 134°59'917.5
2018-Jun-12 11:00N 34°21' E 134°60'1019.0
2018-Jun-12 10:30N 34°28' E 135°07'1019.9
2018-Jun-12 10:00N 34°35' E 135°16'815.3
2018-Jun-12 09:30N 34°37' E 135°25'0 0.0
2018-Jun-12 05:36N 34°37' E 135°25'0 0.0
2018-Jun-12 05:18N 34°37' E 135°25'0 0.0
2018-Jun-12 03:57N 34°37' E 135°25'0 0.0
2018-Jun-12 03:29N 34°37' E 135°25'2 4.5
2018-Jun-12 03:00N 34°36' E 135°22'816.6
2018-Jun-12 02:30N 34°31' E 135°15'816.9
2018-Jun-12 02:00N 34°25' E 135°07'816.8
2018-Jun-12 01:31N 34°19' E 135°00'815.6
2018-Jun-12 01:00N 34°11' E 134°59'917.9
2018-Jun-12 00:30N 34°02' E 135°00'1017.6
2018-Jun-11 23:58N 33°53' E 135°02'816.9
2018-Jun-11 23:29N 33°46' E 135°07'24016.3
2018-Jun-11 08:49N 35°05' E 139°41'620.0
2018-Jun-11 08:30N 35°10' E 139°45'714.1
2018-Jun-11 08:00N 35°17' E 139°45'713.7
2018-Jun-11 07:30N 35°23' E 139°42'917.7
2018-Jun-11 07:00N 35°29' E 139°50'815.3
2018-Jun-11 06:30N 35°36' E 139°46'2 1.4
2018-Jun-11 05:17N 35°38' E 139°46'0 0.0
2018-Jun-11 04:59N 35°38' E 139°46'0 0.1
2018-Jun-11 04:28N 35°38' E 139°46'0 0.1
2018-Jun-11 03:57N 35°38' E 139°46'0 0.0
2018-Jun-11 03:29N 35°38' E 139°46'0 0.0
2018-Jun-11 02:52N 35°38' E 139°46'0 0.0
2018-Jun-10 23:45N 35°38' E 139°46'0 0.0
2018-Jun-10 23:26N 35°38' E 139°46'0 0.0
2018-Jun-10 22:51N 35°38' E 139°46'0 0.3
2018-Jun-10 21:38N 35°38' E 139°46'1 9.3
2018-Jun-10 21:31N 35°37' E 139°46'815.1
2018-Jun-10 21:00N 35°31' E 139°52'815.4
2018-Jun-10 20:30N 35°24' E 139°47'612.8
2018-Jun-10 20:00N 35°18' E 139°44'612.3
2018-Jun-10 19:29N 35°12' E 139°47'715.7
2018-Jun-10 19:00N 35°05' E 139°45'2010.9
2018-Jun-10 17:13N 34°58' E 140°08'  

Dump ship's entire track history